AirNav   Pilot Hours Calculator
 
 641 users online  

M18 Hope Municipal Airport
Hope, Arkansas, USA

GOING TO HOPE?


FAA INFORMATION EFFECTIVE 26 JANUARY 2023

Location

FAA Identifier: M18
Lat/Long: 33-43-11.9321N 093-39-32.0534W
33-43.198868N 093-39.534223W
33.7199811,-93.6589037
(estimated)
Elevation: 359.2 ft. / 109.5 m (surveyed)
Variation: 03E (2000)
From city: 4 miles NW of HOPE, AR
Time zone: UTC -6 (UTC -5 during Daylight Saving Time)
Zip code: 71801

Airport Operations

Airport use: Open to the public
Activation date: 07/1944
Control tower: no
ARTCC: FORT WORTH CENTER
FSS: JONESBORO FLIGHT SERVICE STATION
NOTAMs facility: JBR (NOTAM-D service available)
Attendance: MON-FRI 0800-1700
FOR SVC AFT HRS CALL 870-777-3434 (HOPE P.D.).
Wind indicator: lighted
Segmented circle: yes
Lights: PAPI RWY 16 AND 34 - CTAF. MIRL RWY 16/34 OPER DUSK-2200; AFT 2200 ACTVT - CTAF.
Beacon: white-green (lighted land airport)
Operates sunset to sunrise.

Airport Communications

CTAF/UNICOM: 122.8
  • APCH/DEP CTL SVC PRVDD BY FORT WORTH ARTCC (ZFW) ON FREQS 123.925/269.475 (TEXARKANA RCAG).

Nearby radio navigation aids

VOR radial/distance  VOR name  Freq  Var
TXKr052/24.1TEXARKANA VORTAC116.3007E

 
NDB name  Hdg/Dist  Freq  Var  ID
HOPEat field36203EHPC .... .--. -.-.

Airport Services

Fuel available: 100LL JET-A
100LL:SELF-SERVE FUEL AVBL 24 HRS (100LL & JET A)
Parking: hangars and tiedowns
Airframe service: MINOR
Powerplant service: MINOR

Runway Information

Runway 16/34

Dimensions: 5501 x 100 ft. / 1677 x 30 m
Surface: concrete, in good condition
Weight bearing capacity: 
Single wheel: 40.0
Double wheel: 55.0
Double tandem: 105.0
Runway edge lights: medium intensity
NSTD MIRL - LGTS LCTD APRXLY 35 FT FM MARKED RY EDGE.
Runway edge markings: CNTRLN AND THR MKGS FADED.
RUNWAY 16  RUNWAY 34
Latitude: 33-43.659208N33-42.773768N
Longitude: 093-39.411795W093-39.176868W
Elevation: 359.2 ft.340.4 ft.
Traffic pattern: leftleft
Runway heading: 164 magnetic, 167 true344 magnetic, 347 true
Markings: nonprecision, in poor conditionnonprecision, in poor condition
Visual slope indicator: 2-light PAPI on left (3.00 degrees glide path)2-light PAPI on left (3.00 degrees glide path)
Runway end identifier lights: yesyes
Touchdown point: yes, no lightsyes, no lights
Obstructions: 32 ft. tree, 1300 ft. from runway, 330 ft. left of centerline, 34:1 slope to clear29 ft. trees, 1200 ft. from runway, 34:1 slope to clear

Runway 4/22

Dimensions: 5301 x 100 ft. / 1616 x 30 m
Surface: concrete, in fair condition
Weight bearing capacity: 
Single wheel: 40.0
Double wheel: 55.0
Double tandem: 105.0
Runway edge markings: CNTRLN AND THR MKGS FADED.
RUNWAY 4  RUNWAY 22
Latitude: 33-42.886167N33-43.475000N
Longitude: 093-40.169667W093-39.396667W
Elevation: 330.0 ft.351.0 ft.
Traffic pattern: leftleft
Runway heading: 045 magnetic, 048 true225 magnetic, 228 true
Displaced threshold: 1190 ft.344 ft.
Markings: nonprecision, in poor conditionnonprecision, in poor condition
Touchdown point: yes, no lightsyes, no lights
Obstructions: 50 ft. trees, 250 ft. from runway, 1:1 slope to clear
APCH RATIO FROM DSPLCD THR 28:1.
none

Airport Ownership and Management from official FAA records

Ownership: Publicly-owned
Owner: CITY OF HOPE
PO BOX 667
HOPE, AR 71802
Phone 870-777-6701
Manager: DARRELL ALLEN
PO BOX 667
HOPE, AR 71802
Phone 870-777-3444

Airport Operational Statistics

Aircraft based on the field: 16
Single engine airplanes: 16
    
Aircraft operations: avg 22/day *
62% transient general aviation
31% local general aviation
6% military
* for 12-month period ending 30 May 2021

Additional Remarks

FOR CD CTC FORT WORTH ARTCC AT 817-858-7584.
DEER ON & INVOF ARPT.

Instrument Procedures

NOTE: All procedures below are presented as PDF files. If you need a reader for these files, you should download the free Adobe Reader.

NOT FOR NAVIGATION. Please procure official charts for flight.
FAA instrument procedures published for use from 26 January 2023 at 0901Z to 23 February 2023 at 0900z.

 
IAPs - Instrument Approach Procedures
RNAV (GPS) RWY 04   download
RNAV (GPS) RWY 16   download
RNAV (GPS) RWY 22   download
VOR RWY 04   download
NOTE: Special Take-Off Minimums/Departure Procedures apply   download

Other nearby airports with instrument procedures:

M77 - Howard County Airport (19 nm NW)
KTXK - Texarkana Regional Airport-Webb Field (23 nm SW)
KAGO - Ralph C Weiser Field Airport (37 nm SE)
KADF - Dexter B Florence Memorial Field Airport (37 nm NE)
KDEQ - J Lynn Helms Sevier County Airport (42 nm NW)
 
Loc | Ops | Rwys | IFR | FBO | Links
Com | Nav | Svcs | Stats | Notes
Area around M18 (Hope Municipal Airport)
 
Road maps at: MapQuest Bing Google
 
Aerial photo
WARNING: Photo may not be current or correct
Aerial photo of M18 (Hope Municipal Airport)
Photo by Danny R. Schnautz
Taken in the Spring of 2020
looking north-northwest.

Do you have a better or more recent aerial photo of Hope Municipal Airport that you would like to share? If so, please send us your photo.

 
Sectional chart

 
Airport distance calculator
Flying to Hope Municipal Airport? Find the distance to fly.

From to M18

Sunrise and sunset
Times for 02-Feb-2023
 Local
(UTC-6)
 Zulu
(UTC)
Morning civil twilight06:4512:45
Sunrise07:1113:11
Sunset17:4523:45
Evening civil twilight18:1100:11

Current date and time
Zulu (UTC)  02-Feb-2023 08:56:57
Local (UTC-6)  02-Feb-2023 02:56:57
 
METAR
KTXK 
23nm SW 
020753Z AUTO 04006KT 8SM -RA BKN006 OVC009 02/M01 A3027 RMK AO2 SLP250 P0001 T00171006
KAGO 
37nm SE 
020835Z AUTO 03005KT 2 1/2SM BR OVC004 00/M00 A3023 RMK A01
KADF 
37nm NE 
020830Z AUTO 05004KT 10SM UP FEW009 OVC090 M01/M02 A3029 RMK AO2 P0001 FZRANO
KDEQ 
42nm NW 
020835Z AUTO 09003KT 9SM RA SCT018 BKN042 OVC080 02/00 A3026 RMK AO2 UPB09E11RAB11 PRESFR P0003 T00220000
KCDH 
45nm E 
020835Z AUTO 00000KT 8SM OVC007 M00/M00 A3029 RMK AO2
TAF
KTXK 
23nm SW 
020536Z 0206/0306 07005KT P6SM BKN006 OVC070 FM021400 02006KT 1 1/2SM -RA OVC003 FM021800 33004KT 4SM -RA OVC007 FM030000 32004KT 4SM -RA OVC007
NOTAMs
Click for the latest NOTAMs
NOTAMs are issued by the DoD/FAA and will open in a separate window not controlled by AirNav.

 

 
 

FBO, Fuel Providers, and Aircraft Ground Support

  
 Business Name 
 
 Contact 
 
 Services / Description 
 
Fuel Prices
 
Comments
  
City of Hope 870-777-3444
no information available

If you are affiliated with City of Hope and would like to show here your services, contact info, web link, logo, and more, click here
100LL Jet A
SS $6.75 $5.56 
 Updated 27-Jan-2023
 
   write
Southwest Arkansas Aviation 870-777-3444
no information available

If you are affiliated with Southwest Arkansas Aviation and would like to show here your services, contact info, web link, logo, and more, click here
100LL Jet A
SS $6.75 $5.48 
 Updated 20-Jan-2023
 
   1 read write
SS=Self service
Update Fuel Prices
 

Would you like to see your business listed on this page?

 If your business provides an interesting product or service to pilots, flight crews, aircraft, or users of the Hope Municipal Airport, you should consider listing it here.  To start the listing process, click on the button below
 
Add a business
 

Other Pages about Hope Municipal Airport

Update a link
 
Copyright © AirNav, LLC. All rights reserved. Privacy Policy  Contact